Koz'Modem'Jansk, Russia

2:52 PM MSK on October 20, 2019 (GMT +0300)
Cheboksary | | Change Station

Elev 558 ft 56.09 °N, 47.35 °E | Updated 22 minutes ago

Rain
Rain
43 °F
Feels Like 36 °F
N
13
Wind Variable Wind from South

Today
High -- | Low -- °F
--% Chance of Precip.
Yesterday
High -- | Low -- °F
Precip. -- in
Pressure 30.24 in
Visibility 6.2 miles
Clouds Mostly Cloudy 1000 ft
Windchill 36 °F
Dew Point 41 °F
Humidity 93%
Rainfall 0.00 in
Snow Depth Not available.
6:34 AM 4:41 PM
Waning Gibbous, 61% visible
METAR UWKS 201130Z 19006MPS 9999 BKN010 06/05 Q1024 R24/010060 NOSIG RMK QFE754
Pressure 30.24 in
Visibility 6.2 miles
Clouds Mostly Cloudy 1000 ft
Windchill 36 °F
Dew Point 41 °F
Humidity 93%
Rainfall 0.00 in
Snow Depth Not available.
6:34 AM 4:41 PM
Waning Gibbous, 61% visible
METAR UWKS 201130Z 19006MPS 9999 BKN010 06/05 Q1024 R24/010060 NOSIG RMK QFE754

Get Severe Weather Alerts

Thanks for signing up!

Be on the lookout for a verification email in your inbox.

You'll start receiving the daily forecast at 6 AM.

×

10-Day Weather Forecast

×

Almanac

Astronomy

Oct. 20, 2019 Rise Set
Actual Time
Civil Twilight
Nautical Twilight
Astronomical Twilight
Moon
Length of Visible Light
Length of Day
Tomorrow will be .
, % of the Moon is Illuminated

Today's Extremes

Country Highs Country Lows

Community

WunderPhotos

Category 6

Welcome to Category 6. This is the collective home for Weather Underground's featured writeups by Dr. Jeff Masters (right), Bob Henson (left), Chris Burt, and other regular contributors.

Nearby

Air Quality

  Air Quality AQ Index Pollutant
Not available.

Snow Depth

Station Depth Elevation

Earthquake Activity

City Distance Mag. Time & Date
Minimum magnitude displayed is 2.5.

Coastal Water Temperatures

Place Temperature

Stations

Nearby Weather Stations

Station Location Temp. Windchill Dew Point Humidity Wind Precip. Elev Updated Type